Calgary International Airport

CYYC · 艾伯塔, 加拿大

罗盘
风向 的 风向 210° Calgary International Airport 8/26
风: 8 kt, 3 beaufort

4 kt

7 kt
改变
0 6.000 12.000 18.000 24.000 30.000
FEW 5.000 ft
SCT 22.000 ft
METAR CYYC 261800Z 21008KT 40SM FEW050 SCT220 02/M08 A2991 RMK SC1CI3 SC TR SLP174

METAR Calgary International Airport - CYYC/YYC

Calgary International Airport是,加拿大中的大型机场。 该机场有5条跑道: 8/26, 11/29, 17L/35R, 17R/35L 和 17/35. 该领域的国际民航组织标志是CYYC 它的国际航空运输协会代码是YYC.

这份报告是针对2022年11月26日 11:00, 当地时间在Calgary International Airport进行的。

机场观察

风向为210°,速度为8 kt。

可见度为40 mi。

有几云在5.000 ft的高度 和 疏云,零星散落的云朵在22.000 ft的高度。 没有观察到天花板。

温度为2 °C,阵风为-3 °C。 露点为-8 °C,相对湿度为48%。 海平面上的气压为29,91 inHg (QNH)。

白天

今天,太阳从08:10升起,在16:36降落。 这适用于Calgary International Airport,世界夏令时可能有所不同。 当地时间与世界标准时间之间的时差为-7 小时。 当前,没有夏令时有效。

公司介绍

我们没有关于这个机场的公司信息。

体会

到Vliegles.nl去找飞行课程,跳伞和其他飞行体验。 浏览页面,了解Calgary International Airport附近所有可用的活动。 你也可以使用搜索功能来寻找你所在地附近的特定飞行课程、跳伞或其他飞行体验。

跑道

Id 标题 侧风 逆风 侧风 %
8/26 090°-270° 7 kt 4 kt 87 %
11/29 120°-300° 8 kt 100 %
17L/35R 180°-360° 4 kt 7 kt 50 %
17R/35L 180°-360° 4 kt 7 kt 50 %
17/35 180°-360° 4 kt 7 kt 50 %

逆风成分最大的方向会被突出显示,并用于横风计算。 这并不一定意味着这个方向在使用。

乌云

5.000 ft FEW 几云
22.000 ft SCT 疏云,零星散落的云朵

温度 & 天气

温度 2 °C
露点 -8 °C
相对湿度 48%
风寒 -3 °C
Kp-index 0 (0-9)

评论

SLP174海平面压力为30,04 inHg (30,04 inHg)
SC1CI3 SC TR

白天

日出
08:10
中午
12:23
日落
16:36 (5:12)

小工具

你想在你的网站上有一个关于Calgary International Airport的当前航空天气(METAR)的小部件吗?

显示HTML代码

我们和第三方通过cookies跟踪您在我们网站上的互联网行为。如果你继续,我们认为你同意我们的饼干政策